sensor_id;sensor_type;location;lat;lon;timestamp;P1;durP1;ratioP1;P2;durP2;ratioP2
53409;SDS011;66590;50.734;4.246;2023-01-24T00:00:42;53.35;;;33.63;;
53409;SDS011;66590;50.734;4.246;2023-01-24T00:03:09;55.40;;;35.55;;
53409;SDS011;66590;50.734;4.246;2023-01-24T00:05:37;58.38;;;36.35;;
53409;SDS011;66590;50.734;4.246;2023-01-24T00:08:05;56.10;;;34.67;;
53409;SDS011;66590;50.734;4.246;2023-01-24T00:10:32;55.85;;;34.97;;
53409;SDS011;66590;50.734;4.246;2023-01-24T00:12:59;57.67;;;35.00;;
53409;SDS011;66590;50.734;4.246;2023-01-24T00:15:27;55.00;;;35.40;;
53409;SDS011;66590;50.734;4.246;2023-01-24T00:17:54;64.15;;;36.80;;
53409;SDS011;66590;50.734;4.246;2023-01-24T00:20:21;58.10;;;35.13;;
53409;SDS011;66590;50.734;4.246;2023-01-24T00:22:48;60.83;;;38.15;;
53409;SDS011;66590;50.734;4.246;2023-01-24T00:25:17;58.75;;;37.03;;
53409;SDS011;66590;50.734;4.246;2023-01-24T00:27:44;61.85;;;38.60;;
53409;SDS011;66590;50.734;4.246;2023-01-24T00:30:11;59.08;;;36.85;;
53409;SDS011;66590;50.734;4.246;2023-01-24T00:32:38;63.03;;;38.13;;
53409;SDS011;66590;50.734;4.246;2023-01-24T00:35:05;60.17;;;37.75;;
53409;SDS011;66590;50.734;4.246;2023-01-24T00:37:33;63.45;;;38.22;;
53409;SDS011;66590;50.734;4.246;2023-01-24T00:40:00;63.70;;;39.97;;
53409;SDS011;66590;50.734;4.246;2023-01-24T00:42:29;60.83;;;38.38;;
53409;SDS011;66590;50.734;4.246;2023-01-24T00:44:55;63.45;;;38.65;;
53409;SDS011;66590;50.734;4.246;2023-01-24T00:47:23;67.45;;;39.17;;
53409;SDS011;66590;50.734;4.246;2023-01-24T00:49:51;63.22;;;39.10;;
53409;SDS011;66590;50.734;4.246;2023-01-24T00:52:18;65.03;;;39.15;;
53409;SDS011;66590;50.734;4.246;2023-01-24T00:54:45;60.00;;;36.92;;
53409;SDS011;66590;50.734;4.246;2023-01-24T00:57:12;62.70;;;37.03;;
53409;SDS011;66590;50.734;4.246;2023-01-24T00:59:40;65.13;;;38.85;;
53409;SDS011;66590;50.734;4.246;2023-01-24T01:02:07;64.32;;;36.97;;
53409;SDS011;66590;50.734;4.246;2023-01-24T01:04:34;65.45;;;39.80;;
53409;SDS011;66590;50.734;4.246;2023-01-24T01:07:01;64.25;;;38.97;;
53409;SDS011;66590;50.734;4.246;2023-01-24T01:09:29;68.80;;;39.40;;
53409;SDS011;66590;50.734;4.246;2023-01-24T01:11:56;63.75;;;37.47;;
53409;SDS011;66590;50.734;4.246;2023-01-24T01:14:23;63.72;;;37.97;;
53409;SDS011;66590;50.734;4.246;2023-01-24T01:16:51;68.40;;;39.17;;
53409;SDS011;66590;50.734;4.246;2023-01-24T01:19:18;65.47;;;37.90;;
53409;SDS011;66590;50.734;4.246;2023-01-24T01:21:45;62.78;;;38.05;;
53409;SDS011;66590;50.734;4.246;2023-01-24T01:24:12;61.00;;;37.83;;
53409;SDS011;66590;50.734;4.246;2023-01-24T01:26:39;65.07;;;38.17;;
53409;SDS011;66590;50.734;4.246;2023-01-24T01:29:07;64.55;;;38.22;;
53409;SDS011;66590;50.734;4.246;2023-01-24T01:31:35;65.65;;;39.70;;
53409;SDS011;66590;50.734;4.246;2023-01-24T01:34:03;62.85;;;38.45;;
53409;SDS011;66590;50.734;4.246;2023-01-24T01:36:30;67.70;;;39.03;;
53409;SDS011;66590;50.734;4.246;2023-01-24T01:38:57;63.90;;;38.10;;
53409;SDS011;66590;50.734;4.246;2023-01-24T01:41:24;59.53;;;35.63;;
53409;SDS011;66590;50.734;4.246;2023-01-24T01:43:51;56.08;;;35.30;;
53409;SDS011;66590;50.734;4.246;2023-01-24T01:46:19;55.55;;;34.28;;
53409;SDS011;66590;50.734;4.246;2023-01-24T01:48:50;51.78;;;33.15;;
53409;SDS011;66590;50.734;4.246;2023-01-24T01:51:22;55.90;;;34.85;;
53409;SDS011;66590;50.734;4.246;2023-01-24T01:53:57;55.00;;;34.33;;
53409;SDS011;66590;50.734;4.246;2023-01-24T01:56:28;58.30;;;34.67;;
53409;SDS011;66590;50.734;4.246;2023-01-24T01:58:58;59.50;;;35.70;;
53409;SDS011;66590;50.734;4.246;2023-01-24T02:01:29;57.38;;;36.30;;
53409;SDS011;66590;50.734;4.246;2023-01-24T02:03:59;57.38;;;36.28;;
53409;SDS011;66590;50.734;4.246;2023-01-24T02:06:36;61.38;;;35.22;;
53409;SDS011;66590;50.734;4.246;2023-01-24T02:09:15;59.47;;;35.78;;
53409;SDS011;66590;50.734;4.246;2023-01-24T02:11:45;61.08;;;37.00;;
53409;SDS011;66590;50.734;4.246;2023-01-24T02:14:13;58.22;;;35.55;;
53409;SDS011;66590;50.734;4.246;2023-01-24T02:16:45;60.83;;;35.90;;
53409;SDS011;66590;50.734;4.246;2023-01-24T02:19:15;61.50;;;36.53;;
53409;SDS011;66590;50.734;4.246;2023-01-24T02:21:55;60.80;;;35.97;;
53409;SDS011;66590;50.734;4.246;2023-01-24T02:24:33;59.33;;;35.97;;
53409;SDS011;66590;50.734;4.246;2023-01-24T02:27:07;60.78;;;36.50;;
53409;SDS011;66590;50.734;4.246;2023-01-24T02:29:34;63.03;;;36.78;;
53409;SDS011;66590;50.734;4.246;2023-01-24T02:32:02;54.30;;;33.17;;
53409;SDS011;66590;50.734;4.246;2023-01-24T02:34:32;57.63;;;33.38;;
53409;SDS011;66590;50.734;4.246;2023-01-24T02:37:01;57.88;;;34.60;;
53409;SDS011;66590;50.734;4.246;2023-01-24T02:39:32;54.53;;;34.22;;
53409;SDS011;66590;50.734;4.246;2023-01-24T02:42:09;53.47;;;32.25;;
53409;SDS011;66590;50.734;4.246;2023-01-24T02:44:40;55.28;;;33.25;;
53409;SDS011;66590;50.734;4.246;2023-01-24T02:47:11;52.42;;;32.72;;
53409;SDS011;66590;50.734;4.246;2023-01-24T02:49:38;55.63;;;33.95;;
53409;SDS011;66590;50.734;4.246;2023-01-24T02:52:06;55.58;;;34.20;;
53409;SDS011;66590;50.734;4.246;2023-01-24T02:54:34;55.65;;;34.95;;
53409;SDS011;66590;50.734;4.246;2023-01-24T02:57:01;53.05;;;33.67;;
53409;SDS011;66590;50.734;4.246;2023-01-24T02:59:29;58.10;;;36.55;;
53409;SDS011;66590;50.734;4.246;2023-01-24T03:01:56;56.25;;;34.95;;
53409;SDS011;66590;50.734;4.246;2023-01-24T03:04:23;55.10;;;34.30;;
53409;SDS011;66590;50.734;4.246;2023-01-24T03:06:50;56.72;;;36.95;;
53409;SDS011;66590;50.734;4.246;2023-01-24T03:09:17;57.42;;;36.55;;
53409;SDS011;66590;50.734;4.246;2023-01-24T03:11:45;55.05;;;34.85;;
53409;SDS011;66590;50.734;4.246;2023-01-24T03:14:12;56.85;;;34.90;;
53409;SDS011;66590;50.734;4.246;2023-01-24T03:16:41;55.90;;;34.55;;
53409;SDS011;66590;50.734;4.246;2023-01-24T03:19:08;59.08;;;36.75;;
53409;SDS011;66590;50.734;4.246;2023-01-24T03:21:35;58.20;;;34.85;;
53409;SDS011;66590;50.734;4.246;2023-01-24T03:24:03;55.35;;;35.65;;
53409;SDS011;66590;50.734;4.246;2023-01-24T03:26:30;56.25;;;35.13;;
53409;SDS011;66590;50.734;4.246;2023-01-24T03:28:57;53.97;;;36.17;;
53409;SDS011;66590;50.734;4.246;2023-01-24T03:31:24;58.85;;;35.33;;
53409;SDS011;66590;50.734;4.246;2023-01-24T03:33:53;54.70;;;35.40;;
53409;SDS011;66590;50.734;4.246;2023-01-24T03:36:20;58.92;;;37.20;;
53409;SDS011;66590;50.734;4.246;2023-01-24T03:38:47;57.17;;;35.92;;
53409;SDS011;66590;50.734;4.246;2023-01-24T03:41:14;59.45;;;36.47;;
53409;SDS011;66590;50.734;4.246;2023-01-24T03:43:41;57.78;;;36.25;;
53409;SDS011;66590;50.734;4.246;2023-01-24T03:46:08;57.40;;;36.30;;
53409;SDS011;66590;50.734;4.246;2023-01-24T03:48:35;56.72;;;37.08;;
53409;SDS011;66590;50.734;4.246;2023-01-24T03:51:04;58.17;;;36.30;;
53409;SDS011;66590;50.734;4.246;2023-01-24T03:53:31;58.88;;;36.97;;
53409;SDS011;66590;50.734;4.246;2023-01-24T03:55:59;54.33;;;34.42;;
53409;SDS011;66590;50.734;4.246;2023-01-24T03:58:27;50.42;;;31.77;;
53409;SDS011;66590;50.734;4.246;2023-01-24T04:00:56;53.75;;;33.75;;
53409;SDS011;66590;50.734;4.246;2023-01-24T04:03:24;51.40;;;32.92;;
53409;SDS011;66590;50.734;4.246;2023-01-24T04:05:51;54.95;;;33.08;;
53409;SDS011;66590;50.734;4.246;2023-01-24T04:08:19;50.90;;;32.47;;
53409;SDS011;66590;50.734;4.246;2023-01-24T04:10:46;54.28;;;33.83;;
53409;SDS011;66590;50.734;4.246;2023-01-24T04:13:13;56.60;;;35.67;;
53409;SDS011;66590;50.734;4.246;2023-01-24T04:15:41;55.15;;;34.17;;
53409;SDS011;66590;50.734;4.246;2023-01-24T04:18:08;60.25;;;34.45;;
53409;SDS011;66590;50.734;4.246;2023-01-24T04:20:35;55.55;;;33.83;;
53409;SDS011;66590;50.734;4.246;2023-01-24T04:23:03;48.95;;;31.65;;
53409;SDS011;66590;50.734;4.246;2023-01-24T04:25:33;56.53;;;33.63;;
53409;SDS011;66590;50.734;4.246;2023-01-24T04:28:00;51.63;;;32.70;;
53409;SDS011;66590;50.734;4.246;2023-01-24T04:30:28;49.50;;;31.77;;
53409;SDS011;66590;50.734;4.246;2023-01-24T04:32:55;49.80;;;32.38;;
53409;SDS011;66590;50.734;4.246;2023-01-24T04:35:23;52.28;;;32.60;;
53409;SDS011;66590;50.734;4.246;2023-01-24T04:37:51;53.70;;;33.17;;
53409;SDS011;66590;50.734;4.246;2023-01-24T04:40:19;49.75;;;31.83;;
53409;SDS011;66590;50.734;4.246;2023-01-24T04:42:47;52.78;;;31.15;;
53409;SDS011;66590;50.734;4.246;2023-01-24T04:45:14;51.58;;;31.90;;
53409;SDS011;66590;50.734;4.246;2023-01-24T04:47:41;53.70;;;33.30;;
53409;SDS011;66590;50.734;4.246;2023-01-24T04:50:09;53.47;;;33.15;;
53409;SDS011;66590;50.734;4.246;2023-01-24T04:52:36;55.10;;;31.90;;
53409;SDS011;66590;50.734;4.246;2023-01-24T04:55:04;52.78;;;33.33;;
53409;SDS011;66590;50.734;4.246;2023-01-24T04:57:31;51.22;;;32.80;;
53409;SDS011;66590;50.734;4.246;2023-01-24T05:00:00;53.15;;;33.35;;
53409;SDS011;66590;50.734;4.246;2023-01-24T05:02:27;47.67;;;31.65;;
53409;SDS011;66590;50.734;4.246;2023-01-24T05:04:54;48.90;;;33.05;;
53409;SDS011;66590;50.734;4.246;2023-01-24T05:07:21;49.78;;;31.27;;
53409;SDS011;66590;50.734;4.246;2023-01-24T05:09:48;51.35;;;33.17;;
53409;SDS011;66590;50.734;4.246;2023-01-24T05:12:15;52.88;;;32.67;;
53409;SDS011;66590;50.734;4.246;2023-01-24T05:14:42;54.03;;;34.15;;
53409;SDS011;66590;50.734;4.246;2023-01-24T05:17:10;52.33;;;33.40;;
53409;SDS011;66590;50.734;4.246;2023-01-24T05:19:37;50.25;;;32.53;;
53409;SDS011;66590;50.734;4.246;2023-01-24T05:22:04;47.75;;;31.90;;
53409;SDS011;66590;50.734;4.246;2023-01-24T05:24:31;52.17;;;32.72;;
53409;SDS011;66590;50.734;4.246;2023-01-24T05:26:58;51.70;;;33.22;;
53409;SDS011;66590;50.734;4.246;2023-01-24T05:29:25;52.85;;;33.67;;
53409;SDS011;66590;50.734;4.246;2023-01-24T05:31:52;53.72;;;34.13;;
53409;SDS011;66590;50.734;4.246;2023-01-24T05:34:21;51.17;;;32.92;;
53409;SDS011;66590;50.734;4.246;2023-01-24T05:36:48;50.33;;;33.63;;
53409;SDS011;66590;50.734;4.246;2023-01-24T05:39:15;54.50;;;35.67;;
53409;SDS011;66590;50.734;4.246;2023-01-24T05:41:42;54.22;;;34.47;;
53409;SDS011;66590;50.734;4.246;2023-01-24T05:44:09;54.58;;;34.25;;
53409;SDS011;66590;50.734;4.246;2023-01-24T05:46:36;56.38;;;33.45;;
53409;SDS011;66590;50.734;4.246;2023-01-24T05:49:03;49.67;;;32.97;;
53409;SDS011;66590;50.734;4.246;2023-01-24T05:51:31;51.97;;;33.97;;
53409;SDS011;66590;50.734;4.246;2023-01-24T05:53:58;53.55;;;34.38;;
53409;SDS011;66590;50.734;4.246;2023-01-24T05:56:25;52.17;;;32.72;;
53409;SDS011;66590;50.734;4.246;2023-01-24T05:58:52;56.42;;;35.38;;
53409;SDS011;66590;50.734;4.246;2023-01-24T06:01:20;57.15;;;36.47;;
53409;SDS011;66590;50.734;4.246;2023-01-24T06:03:49;57.10;;;36.13;;
53409;SDS011;66590;50.734;4.246;2023-01-24T06:06:18;52.58;;;33.55;;
53409;SDS011;66590;50.734;4.246;2023-01-24T06:08:48;48.50;;;31.75;;
53409;SDS011;66590;50.734;4.246;2023-01-24T06:11:16;49.58;;;31.27;;
53409;SDS011;66590;50.734;4.246;2023-01-24T06:13:44;49.88;;;32.78;;
53409;SDS011;66590;50.734;4.246;2023-01-24T06:16:12;53.25;;;32.67;;
53409;SDS011;66590;50.734;4.246;2023-01-24T06:18:40;51.72;;;32.97;;
53409;SDS011;66590;50.734;4.246;2023-01-24T06:21:08;51.13;;;32.90;;
53409;SDS011;66590;50.734;4.246;2023-01-24T06:23:49;49.83;;;32.30;;
53409;SDS011;66590;50.734;4.246;2023-01-24T06:26:17;49.05;;;31.45;;
53409;SDS011;66590;50.734;4.246;2023-01-24T06:28:44;49.58;;;32.58;;
53409;SDS011;66590;50.734;4.246;2023-01-24T06:31:14;55.90;;;34.50;;
53409;SDS011;66590;50.734;4.246;2023-01-24T06:33:54;51.28;;;32.95;;
53409;SDS011;66590;50.734;4.246;2023-01-24T06:36:38;53.85;;;34.65;;
53409;SDS011;66590;50.734;4.246;2023-01-24T06:39:15;55.92;;;35.47;;
53409;SDS011;66590;50.734;4.246;2023-01-24T06:41:42;58.30;;;36.40;;
53409;SDS011;66590;50.734;4.246;2023-01-24T06:44:10;58.97;;;36.58;;
53409;SDS011;66590;50.734;4.246;2023-01-24T06:46:37;52.53;;;33.92;;
53409;SDS011;66590;50.734;4.246;2023-01-24T06:49:04;62.65;;;37.42;;
53409;SDS011;66590;50.734;4.246;2023-01-24T06:51:32;62.28;;;37.58;;
53409;SDS011;66590;50.734;4.246;2023-01-24T06:53:59;60.97;;;38.40;;
53409;SDS011;66590;50.734;4.246;2023-01-24T06:56:30;57.55;;;36.65;;
53409;SDS011;66590;50.734;4.246;2023-01-24T06:58:57;58.10;;;36.60;;
53409;SDS011;66590;50.734;4.246;2023-01-24T07:01:24;57.60;;;34.55;;
53409;SDS011;66590;50.734;4.246;2023-01-24T07:03:51;57.60;;;34.92;;
53409;SDS011;66590;50.734;4.246;2023-01-24T07:06:18;59.22;;;36.55;;
53409;SDS011;66590;50.734;4.246;2023-01-24T07:08:46;56.75;;;34.70;;
53409;SDS011;66590;50.734;4.246;2023-01-24T07:11:13;55.38;;;35.70;;
53409;SDS011;66590;50.734;4.246;2023-01-24T07:13:41;59.05;;;37.33;;
53409;SDS011;66590;50.734;4.246;2023-01-24T07:16:08;58.20;;;35.28;;
53409;SDS011;66590;50.734;4.246;2023-01-24T07:18:35;61.15;;;37.65;;
53409;SDS011;66590;50.734;4.246;2023-01-24T07:21:04;59.22;;;37.10;;
53409;SDS011;66590;50.734;4.246;2023-01-24T07:23:32;59.55;;;37.78;;
53409;SDS011;66590;50.734;4.246;2023-01-24T07:26:00;61.97;;;37.35;;
53409;SDS011;66590;50.734;4.246;2023-01-24T07:28:28;64.35;;;40.13;;
53409;SDS011;66590;50.734;4.246;2023-01-24T07:30:56;63.03;;;36.67;;
53409;SDS011;66590;50.734;4.246;2023-01-24T07:33:23;62.85;;;37.72;;
53409;SDS011;66590;50.734;4.246;2023-01-24T07:35:50;64.30;;;37.85;;
53409;SDS011;66590;50.734;4.246;2023-01-24T07:38:17;64.18;;;37.40;;
53409;SDS011;66590;50.734;4.246;2023-01-24T07:40:44;62.33;;;37.47;;
53409;SDS011;66590;50.734;4.246;2023-01-24T07:43:11;60.92;;;37.35;;
53409;SDS011;66590;50.734;4.246;2023-01-24T07:45:38;59.40;;;35.90;;
53409;SDS011;66590;50.734;4.246;2023-01-24T07:48:07;62.60;;;37.40;;
53409;SDS011;66590;50.734;4.246;2023-01-24T07:50:34;62.28;;;37.20;;
53409;SDS011;66590;50.734;4.246;2023-01-24T07:53:02;63.72;;;37.67;;
53409;SDS011;66590;50.734;4.246;2023-01-24T07:55:29;61.55;;;37.88;;
53409;SDS011;66590;50.734;4.246;2023-01-24T07:57:59;62.65;;;37.72;;
53409;SDS011;66590;50.734;4.246;2023-01-24T08:00:27;63.75;;;39.38;;
53409;SDS011;66590;50.734;4.246;2023-01-24T08:02:55;61.08;;;38.17;;
53409;SDS011;66590;50.734;4.246;2023-01-24T08:05:23;65.95;;;39.53;;
53409;SDS011;66590;50.734;4.246;2023-01-24T08:07:50;62.85;;;36.85;;
53409;SDS011;66590;50.734;4.246;2023-01-24T08:10:20;63.15;;;38.50;;
53409;SDS011;66590;50.734;4.246;2023-01-24T08:12:47;61.83;;;37.08;;
53409;SDS011;66590;50.734;4.246;2023-01-24T08:15:14;68.35;;;38.53;;
53409;SDS011;66590;50.734;4.246;2023-01-24T08:17:42;71.38;;;40.42;;
53409;SDS011;66590;50.734;4.246;2023-01-24T08:20:09;63.47;;;38.25;;
53409;SDS011;66590;50.734;4.246;2023-01-24T08:22:39;65.07;;;39.50;;
53409;SDS011;66590;50.734;4.246;2023-01-24T08:25:22;66.65;;;37.58;;
53409;SDS011;66590;50.734;4.246;2023-01-24T08:27:50;62.28;;;38.08;;
53409;SDS011;66590;50.734;4.246;2023-01-24T08:30:17;67.93;;;39.47;;
53409;SDS011;66590;50.734;4.246;2023-01-24T08:32:44;63.33;;;38.22;;
53409;SDS011;66590;50.734;4.246;2023-01-24T08:35:11;63.85;;;36.95;;
53409;SDS011;66590;50.734;4.246;2023-01-24T08:37:40;65.22;;;38.47;;
53409;SDS011;66590;50.734;4.246;2023-01-24T08:40:08;60.08;;;37.35;;
53409;SDS011;66590;50.734;4.246;2023-01-24T08:42:35;60.28;;;35.70;;
53409;SDS011;66590;50.734;4.246;2023-01-24T08:45:03;56.40;;;36.17;;
53409;SDS011;66590;50.734;4.246;2023-01-24T08:47:30;54.58;;;34.40;;
53409;SDS011;66590;50.734;4.246;2023-01-24T08:49:57;56.58;;;34.63;;
53409;SDS011;66590;50.734;4.246;2023-01-24T08:52:24;50.88;;;33.10;;
53409;SDS011;66590;50.734;4.246;2023-01-24T08:54:52;53.67;;;32.95;;
53409;SDS011;66590;50.734;4.246;2023-01-24T08:57:20;54.85;;;33.75;;
53409;SDS011;66590;50.734;4.246;2023-01-24T08:59:47;49.35;;;32.15;;
53409;SDS011;66590;50.734;4.246;2023-01-24T09:02:14;50.05;;;32.90;;
53409;SDS011;66590;50.734;4.246;2023-01-24T09:04:42;56.38;;;34.97;;
53409;SDS011;66590;50.734;4.246;2023-01-24T09:07:09;47.40;;;31.25;;
53409;SDS011;66590;50.734;4.246;2023-01-24T09:09:37;50.65;;;34.15;;
53409;SDS011;66590;50.734;4.246;2023-01-24T09:12:05;51.88;;;34.05;;
53409;SDS011;66590;50.734;4.246;2023-01-24T09:14:32;53.17;;;34.42;;
53409;SDS011;66590;50.734;4.246;2023-01-24T09:16:59;48.40;;;32.25;;
53409;SDS011;66590;50.734;4.246;2023-01-24T09:19:27;48.58;;;31.75;;
53409;SDS011;66590;50.734;4.246;2023-01-24T09:21:54;51.65;;;33.35;;
53409;SDS011;66590;50.734;4.246;2023-01-24T09:24:21;54.42;;;33.90;;
53409;SDS011;66590;50.734;4.246;2023-01-24T09:26:48;52.42;;;33.53;;
53409;SDS011;66590;50.734;4.246;2023-01-24T09:29:16;47.80;;;30.70;;
53409;SDS011;66590;50.734;4.246;2023-01-24T09:31:43;50.25;;;32.15;;
53409;SDS011;66590;50.734;4.246;2023-01-24T09:34:12;49.15;;;31.85;;
53409;SDS011;66590;50.734;4.246;2023-01-24T09:36:39;49.33;;;31.98;;
53409;SDS011;66590;50.734;4.246;2023-01-24T09:39:06;50.78;;;32.38;;
53409;SDS011;66590;50.734;4.246;2023-01-24T09:41:44;49.65;;;31.75;;
53409;SDS011;66590;50.734;4.246;2023-01-24T09:44:39;47.10;;;31.48;;
53409;SDS011;66590;50.734;4.246;2023-01-24T09:47:14;46.42;;;31.27;;
53409;SDS011;66590;50.734;4.246;2023-01-24T09:49:45;45.72;;;30.38;;
53409;SDS011;66590;50.734;4.246;2023-01-24T09:52:25;49.05;;;31.45;;
53409;SDS011;66590;50.734;4.246;2023-01-24T09:54:56;46.10;;;30.80;;
53409;SDS011;66590;50.734;4.246;2023-01-24T09:57:37;45.05;;;31.70;;
53409;SDS011;66590;50.734;4.246;2023-01-24T10:00:16;46.05;;;31.27;;
53409;SDS011;66590;50.734;4.246;2023-01-24T10:02:54;46.40;;;30.85;;
53409;SDS011;66590;50.734;4.246;2023-01-24T10:05:23;44.45;;;30.92;;
53409;SDS011;66590;50.734;4.246;2023-01-24T10:08:06;44.38;;;30.90;;
53409;SDS011;66590;50.734;4.246;2023-01-24T10:10:45;45.58;;;30.75;;
53409;SDS011;66590;50.734;4.246;2023-01-24T10:13:34;49.05;;;32.45;;
53409;SDS011;66590;50.734;4.246;2023-01-24T10:16:32;45.05;;;30.67;;
53409;SDS011;66590;50.734;4.246;2023-01-24T10:19:38;46.17;;;30.17;;
53409;SDS011;66590;50.734;4.246;2023-01-24T10:22:30;44.95;;;29.60;;
53409;SDS011;66590;50.734;4.246;2023-01-24T10:25:16;44.17;;;29.58;;
53409;SDS011;66590;50.734;4.246;2023-01-24T10:27:57;43.70;;;29.90;;
53409;SDS011;66590;50.734;4.246;2023-01-24T10:30:36;41.60;;;28.25;;
53409;SDS011;66590;50.734;4.246;2023-01-24T10:33:16;44.00;;;29.92;;
53409;SDS011;66590;50.734;4.246;2023-01-24T10:35:53;40.63;;;27.48;;
53409;SDS011;66590;50.734;4.246;2023-01-24T10:38:29;40.90;;;28.20;;
53409;SDS011;66590;50.734;4.246;2023-01-24T10:41:14;38.43;;;25.97;;
53409;SDS011;66590;50.734;4.246;2023-01-24T10:43:48;35.95;;;25.85;;
53409;SDS011;66590;50.734;4.246;2023-01-24T10:46:31;38.35;;;27.35;;
53409;SDS011;66590;50.734;4.246;2023-01-24T10:49:18;40.83;;;28.25;;
53409;SDS011;66590;50.734;4.246;2023-01-24T10:52:11;39.67;;;27.67;;
53409;SDS011;66590;50.734;4.246;2023-01-24T10:54:47;41.00;;;29.45;;
53409;SDS011;66590;50.734;4.246;2023-01-24T11:00:17;41.13;;;28.65;;
53409;SDS011;66590;50.734;4.246;2023-01-24T11:02:51;38.95;;;28.27;;
53409;SDS011;66590;50.734;4.246;2023-01-24T11:05:20;35.17;;;26.08;;
53409;SDS011;66590;50.734;4.246;2023-01-24T11:07:49;35.25;;;25.98;;
53409;SDS011;66590;50.734;4.246;2023-01-24T11:10:19;39.83;;;26.75;;
53409;SDS011;66590;50.734;4.246;2023-01-24T11:12:51;34.45;;;26.08;;
53409;SDS011;66590;50.734;4.246;2023-01-24T11:15:22;38.25;;;27.73;;
53409;SDS011;66590;50.734;4.246;2023-01-24T11:17:55;33.47;;;25.85;;
53409;SDS011;66590;50.734;4.246;2023-01-24T11:20:27;34.65;;;25.85;;
53409;SDS011;66590;50.734;4.246;2023-01-24T11:23:03;34.17;;;25.52;;
53409;SDS011;66590;50.734;4.246;2023-01-24T11:25:31;35.33;;;25.27;;
53409;SDS011;66590;50.734;4.246;2023-01-24T11:27:59;39.58;;;27.60;;
53409;SDS011;66590;50.734;4.246;2023-01-24T11:30:26;35.72;;;26.42;;
53409;SDS011;66590;50.734;4.246;2023-01-24T11:32:57;35.40;;;26.60;;
53409;SDS011;66590;50.734;4.246;2023-01-24T11:35:39;37.80;;;27.58;;
53409;SDS011;66590;50.734;4.246;2023-01-24T11:38:15;35.17;;;26.30;;
53409;SDS011;66590;50.734;4.246;2023-01-24T11:40:51;34.63;;;26.33;;
53409;SDS011;66590;50.734;4.246;2023-01-24T11:43:35;31.77;;;25.20;;
53409;SDS011;66590;50.734;4.246;2023-01-24T11:46:19;34.95;;;26.15;;
53409;SDS011;66590;50.734;4.246;2023-01-24T11:48:57;35.53;;;26.33;;
53409;SDS011;66590;50.734;4.246;2023-01-24T11:51:36;33.80;;;24.90;;
53409;SDS011;66590;50.734;4.246;2023-01-24T11:54:13;36.40;;;25.60;;
53409;SDS011;66590;50.734;4.246;2023-01-24T11:56:53;38.67;;;26.35;;
53409;SDS011;66590;50.734;4.246;2023-01-24T12:02:23;35.38;;;25.95;;
53409;SDS011;66590;50.734;4.246;2023-01-24T12:05:10;35.40;;;26.38;;
53409;SDS011;66590;50.734;4.246;2023-01-24T12:07:55;36.17;;;27.08;;
53409;SDS011;66590;50.734;4.246;2023-01-24T12:10:31;34.10;;;26.35;;
53409;SDS011;66590;50.734;4.246;2023-01-24T12:13:12;35.95;;;27.08;;
53409;SDS011;66590;50.734;4.246;2023-01-24T12:15:46;26.85;;;19.48;;
53409;SDS011;66590;50.734;4.246;2023-01-24T12:18:35;36.38;;;27.25;;
53409;SDS011;66590;50.734;4.246;2023-01-24T12:21:14;37.88;;;26.42;;
53409;SDS011;66590;50.734;4.246;2023-01-24T12:23:44;33.45;;;25.50;;
53409;SDS011;66590;50.734;4.246;2023-01-24T12:26:19;33.38;;;25.52;;
53409;SDS011;66590;50.734;4.246;2023-01-24T12:28:55;35.97;;;25.65;;
53409;SDS011;66590;50.734;4.246;2023-01-24T12:31:30;37.00;;;25.35;;
53409;SDS011;66590;50.734;4.246;2023-01-24T12:34:03;32.28;;;24.40;;
53409;SDS011;66590;50.734;4.246;2023-01-24T12:36:43;35.38;;;25.45;;
53409;SDS011;66590;50.734;4.246;2023-01-24T12:39:19;31.92;;;24.33;;
53409;SDS011;66590;50.734;4.246;2023-01-24T12:41:54;32.00;;;24.60;;
53409;SDS011;66590;50.734;4.246;2023-01-24T12:44:28;33.50;;;24.23;;
53409;SDS011;66590;50.734;4.246;2023-01-24T12:49:48;33.75;;;25.45;;
53409;SDS011;66590;50.734;4.246;2023-01-24T12:52:28;34.85;;;24.58;;
53409;SDS011;66590;50.734;4.246;2023-01-24T12:55:02;33.88;;;26.15;;
53409;SDS011;66590;50.734;4.246;2023-01-24T12:57:37;37.38;;;25.75;;
53409;SDS011;66590;50.734;4.246;2023-01-24T13:00:12;35.83;;;25.35;;
53409;SDS011;66590;50.734;4.246;2023-01-24T13:02:44;35.28;;;25.30;;
53409;SDS011;66590;50.734;4.246;2023-01-24T13:05:32;37.35;;;27.17;;
53409;SDS011;66590;50.734;4.246;2023-01-24T13:08:13;33.83;;;24.83;;
53409;SDS011;66590;50.734;4.246;2023-01-24T13:10:53;31.92;;;24.52;;
53409;SDS011;66590;50.734;4.246;2023-01-24T13:13:32;35.78;;;26.70;;
53409;SDS011;66590;50.734;4.246;2023-01-24T13:16:07;37.40;;;26.85;;
53409;SDS011;66590;50.734;4.246;2023-01-24T13:18:51;34.80;;;26.08;;
53409;SDS011;66590;50.734;4.246;2023-01-24T13:21:24;36.40;;;26.15;;
53409;SDS011;66590;50.734;4.246;2023-01-24T13:24:07;33.53;;;25.35;;
53409;SDS011;66590;50.734;4.246;2023-01-24T13:26:54;38.22;;;26.45;;
53409;SDS011;66590;50.734;4.246;2023-01-24T13:29:32;35.95;;;25.40;;
53409;SDS011;66590;50.734;4.246;2023-01-24T13:32:11;32.60;;;24.92;;
53409;SDS011;66590;50.734;4.246;2023-01-24T13:34:41;34.10;;;25.75;;
53409;SDS011;66590;50.734;4.246;2023-01-24T13:37:14;35.42;;;26.30;;
53409;SDS011;66590;50.734;4.246;2023-01-24T13:39:44;36.92;;;25.90;;
53409;SDS011;66590;50.734;4.246;2023-01-24T13:42:21;37.20;;;26.35;;
53409;SDS011;66590;50.734;4.246;2023-01-24T13:44:50;36.83;;;25.38;;
53409;SDS011;66590;50.734;4.246;2023-01-24T13:47:32;33.55;;;25.65;;
53409;SDS011;66590;50.734;4.246;2023-01-24T13:52:50;36.70;;;25.75;;
53409;SDS011;66590;50.734;4.246;2023-01-24T13:58:30;34.78;;;25.27;;
53409;SDS011;66590;50.734;4.246;2023-01-24T14:00:58;36.45;;;25.75;;
53409;SDS011;66590;50.734;4.246;2023-01-24T14:03:29;35.80;;;25.95;;
53409;SDS011;66590;50.734;4.246;2023-01-24T14:06:04;35.72;;;26.05;;
53409;SDS011;66590;50.734;4.246;2023-01-24T14:08:40;33.28;;;25.05;;
53409;SDS011;66590;50.734;4.246;2023-01-24T14:11:20;35.03;;;25.13;;
53409;SDS011;66590;50.734;4.246;2023-01-24T14:17:46;33.70;;;24.90;;
53409;SDS011;66590;50.734;4.246;2023-01-24T14:20:20;35.33;;;25.35;;
53409;SDS011;66590;50.734;4.246;2023-01-24T14:22:52;31.80;;;22.77;;
53409;SDS011;66590;50.734;4.246;2023-01-24T14:25:25;38.53;;;26.00;;
53409;SDS011;66590;50.734;4.246;2023-01-24T14:28:00;39.28;;;26.58;;
53409;SDS011;66590;50.734;4.246;2023-01-24T14:30:33;36.75;;;26.73;;
53409;SDS011;66590;50.734;4.246;2023-01-24T14:33:13;36.95;;;26.88;;
53409;SDS011;66590;50.734;4.246;2023-01-24T14:36:05;35.00;;;25.30;;
53409;SDS011;66590;50.734;4.246;2023-01-24T14:38:38;35.28;;;26.10;;
53409;SDS011;66590;50.734;4.246;2023-01-24T14:41:11;35.22;;;26.15;;
53409;SDS011;66590;50.734;4.246;2023-01-24T14:43:46;36.35;;;26.50;;
53409;SDS011;66590;50.734;4.246;2023-01-24T14:46:16;38.35;;;26.35;;
53409;SDS011;66590;50.734;4.246;2023-01-24T14:48:48;38.28;;;27.15;;
53409;SDS011;66590;50.734;4.246;2023-01-24T14:51:16;36.30;;;26.23;;
53409;SDS011;66590;50.734;4.246;2023-01-24T14:53:48;38.35;;;27.27;;
53409;SDS011;66590;50.734;4.246;2023-01-24T14:56:16;36.53;;;25.92;;
53409;SDS011;66590;50.734;4.246;2023-01-24T14:58:43;34.95;;;26.15;;
53409;SDS011;66590;50.734;4.246;2023-01-24T15:01:21;41.17;;;29.70;;